Orbital elements of SL-8 DEB
| Launched | 11 February 1991 |
| Flight ended | – |
| Launch site | Plesetsk Missile and Space Complex, Russia |
| Owner | Commonwealth of Independent States (former USSR) |
| NORAD ID | 23265 |
| Date fetched |
Epoch osculation |
Inc. [°] |
Ecc. | RA asc node [hr] |
Arg Peri. [°] |
Mean anom [°] |
Mean motion [rev/day] |
Abs. mag |
| Date fetched |
Epoch osculation |
Inc. [°] |
Ecc. | RA asc node [hr] |
Arg Peri. [°] |
Mean anom [°] |
Mean motion [rev/day] |
Abs. mag |
| 2026 May 08 17:57 | 2026 May 01 15:37:09 | 73.9987 | 0.01643 | 23.9660 | 185.0413 | 204.4434 | 12.30093 | – |
| 2026 May 07 17:58 | 2026 May 01 15:37:09 | 73.9987 | 0.01643 | 23.9660 | 185.0413 | 204.4434 | 12.30093 | – |
| 2026 May 06 17:57 | 2026 May 01 15:37:09 | 73.9987 | 0.01643 | 23.9660 | 185.0413 | 204.4434 | 12.30093 | – |
| 2026 May 05 17:57 | 2026 May 01 15:37:09 | 73.9987 | 0.01643 | 23.9660 | 185.0413 | 204.4434 | 12.30093 | – |
| 2026 May 04 17:57 | 2026 Apr 30 03:13:14 | 73.9973 | 0.01643 | 0.0957 | 187.3167 | 204.4434 | 12.30093 | – |
| 2026 May 03 17:57 | 2026 Apr 30 03:13:14 | 73.9973 | 0.01643 | 0.0957 | 187.3167 | 204.4434 | 12.30093 | – |
| 2026 May 02 17:57 | 2026 Apr 30 03:13:14 | 73.9973 | 0.01643 | 0.0957 | 187.3167 | 204.4434 | 12.30093 | – |
| 2026 May 01 17:56 | 2026 Apr 30 03:13:14 | 73.9973 | 0.01643 | 0.0957 | 187.3167 | 204.4434 | 12.30093 | – |
| 2026 Apr 30 17:56 | 2026 Apr 30 03:13:14 | 73.9973 | 0.01643 | 0.0957 | 187.3167 | 204.4434 | 12.30093 | – |
| 2026 Apr 29 17:57 | 2026 Apr 23 03:23:25 | 73.9975 | 0.01642 | 0.6940 | 197.8563 | 204.4434 | 12.30093 | – |
| 2026 Apr 28 17:56 | 2026 Apr 23 03:23:25 | 73.9975 | 0.01642 | 0.6940 | 197.8563 | 204.4434 | 12.30093 | – |
| 2026 Apr 27 17:58 | 2026 Apr 23 03:23:25 | 73.9975 | 0.01642 | 0.6940 | 197.8563 | 204.4434 | 12.30093 | – |
| 2026 Apr 26 17:58 | 2026 Apr 23 03:23:25 | 73.9975 | 0.01642 | 0.6940 | 197.8563 | 204.4434 | 12.30093 | – |
| 2026 Apr 25 17:58 | 2026 Apr 23 03:23:25 | 73.9975 | 0.01642 | 0.6940 | 197.8563 | 204.4434 | 12.30093 | – |
| 2026 Apr 24 17:59 | 2026 Apr 23 03:23:25 | 73.9975 | 0.01642 | 0.6940 | 197.8563 | 204.4434 | 12.30093 | – |
| 2026 Apr 23 17:57 | 2026 Apr 16 05:30:09 | 73.9977 | 0.01645 | 1.2854 | 208.2775 | 204.4434 | 12.30093 | – |
| 2026 Apr 22 17:57 | 2026 Apr 16 05:30:09 | 73.9977 | 0.01645 | 1.2854 | 208.2775 | 204.4434 | 12.30093 | – |
| 2026 Apr 21 17:57 | 2026 Apr 16 05:30:09 | 73.9977 | 0.01645 | 1.2854 | 208.2775 | 204.4434 | 12.30093 | – |
| 2026 Apr 20 17:57 | 2026 Apr 16 05:30:09 | 73.9977 | 0.01645 | 1.2854 | 208.2775 | 204.4434 | 12.30093 | – |
| 2026 Apr 19 17:58 | 2026 Apr 16 05:30:09 | 73.9977 | 0.01645 | 1.2854 | 208.2775 | 204.4434 | 12.30093 | – |
| 2026 Apr 18 17:56 | 2026 Apr 12 18:49:08 | 73.9975 | 0.01648 | 1.5801 | 213.4701 | 204.4434 | 12.30093 | – |
| 2026 Apr 16 17:57 | 2026 Apr 12 18:49:08 | 73.9975 | 0.01648 | 1.5801 | 213.4701 | 204.4434 | 12.30093 | – |
| 2026 Apr 14 17:57 | 2026 Apr 12 18:49:08 | 73.9975 | 0.01648 | 1.5801 | 213.4701 | 204.4434 | 12.30093 | – |
| 2026 Apr 13 17:57 | 2026 Apr 12 18:49:08 | 73.9975 | 0.01648 | 1.5801 | 213.4701 | 204.4434 | 12.30093 | – |
| 2026 Apr 12 17:57 | 2026 Apr 07 06:47:42 | 73.9972 | 0.01654 | 2.0508 | 221.6924 | 204.4434 | 12.30093 | – |
| 2026 Apr 11 17:57 | 2026 Apr 07 06:47:42 | 73.9972 | 0.01654 | 2.0508 | 221.6924 | 204.4434 | 12.30093 | – |